Time,TemperatureF,DewpointF,PressureIn,WindDirection,WindDirectionDegrees,WindSpeedMPH,WindSpeedGustMPH,Humidity,HourlyPrecipIn,Conditions,Clouds,dailyrainin,SoftwareType,DateUTC
2013-09-25 00:14:00,75.0,75.0,29.88,SW,215,0.0,0.0,100,0.00,,,0.77,,2013-09-25 04:14:00,
2013-09-25 00:24:00,75.0,75.0,29.88,SW,215,0.0,0.0,100,0.00,,,0.77,,2013-09-25 04:24:00,
2013-09-25 00:54:00,75.0,75.0,29.88,SW,215,0.0,0.0,100,0.00,,,0.18,,2013-09-25 04:54:00,
2013-09-25 01:23:00,75.0,75.0,29.88,SW,215,0.0,0.0,100,0.00,,,0.18,,2013-09-25 05:23:00,
2013-09-25 01:53:00,76.0,76.0,29.88,SW,215,0.0,0.0,100,0.00,,,0.18,,2013-09-25 05:53:00,
2013-09-25 02:23:00,76.0,76.0,29.86,SW,215,0.0,0.0,100,0.00,,,0.18,,2013-09-25 06:23:00,
2013-09-25 02:52:00,76.0,76.0,29.86,SW,215,0.0,0.0,100,0.00,,,0.18,,2013-09-25 06:52:00,
2013-09-25 03:22:00,76.0,76.0,29.86,SW,215,0.0,0.0,100,0.00,,,0.18,,2013-09-25 07:22:00,
2013-09-25 03:53:00,77.0,77.0,29.85,SW,215,0.0,0.0,100,0.00,,,0.18,,2013-09-25 07:53:00,
2013-09-25 04:21:00,77.0,77.0,29.85,SW,215,0.0,0.0,100,0.00,,,0.18,,2013-09-25 08:21:00,
2013-09-25 04:53:00,77.0,77.0,29.84,SW,215,0.0,0.0,100,0.00,,,0.18,,2013-09-25 08:53:00,
2013-09-25 05:22:00,77.0,77.0,29.83,SW,215,0.0,0.0,100,0.03,,,0.18,,2013-09-25 09:22:00,
2013-09-25 05:54:00,76.0,76.0,29.84,SW,215,0.0,0.0,100,0.08,,,0.18,,2013-09-25 09:54:00,
2013-09-25 06:23:00,75.0,75.0,29.85,SW,215,0.0,0.0,100,0.06,,,0.18,,2013-09-25 10:23:00,
2013-09-25 06:53:00,75.0,75.0,29.84,SW,215,0.0,0.0,100,0.02,,,0.18,,2013-09-25 10:53:00,
2013-09-25 07:22:00,74.0,74.0,29.85,SW,215,0.0,0.0,100,0.01,,,0.18,,2013-09-25 11:22:00,
2013-09-25 07:52:00,74.0,74.0,29.85,SW,215,0.0,0.0,100,0.02,,,0.18,,2013-09-25 11:52:00,
2013-09-25 08:22:00,74.0,74.0,29.87,SW,215,0.0,0.0,100,0.02,,,0.18,,2013-09-25 12:22:00,
2013-09-25 08:52:00,75.0,75.0,29.88,SW,215,0.0,0.0,100,0.02,,,0.18,,2013-09-25 12:52:00,
2013-09-25 09:22:00,75.0,75.0,29.89,West,277,0.0,20.0,100,0.01,,,0.18,,2013-09-25 13:22:00,
2013-09-25 09:52:00,74.0,74.0,29.91,North,359,0.0,18.0,100,0.05,,,0.18,,2013-09-25 13:52:00,
2013-09-25 10:22:00,73.0,73.0,29.91,North,359,0.0,0.0,100,0.11,,,0.18,,2013-09-25 14:22:00,
2013-09-25 10:52:00,73.0,73.0,29.89,North,359,0.0,0.0,100,0.11,,,0.18,,2013-09-25 14:52:00,
2013-09-25 11:22:00,74.0,74.0,29.88,North,359,0.0,0.0,100,0.05,,,0.18,,2013-09-25 15:22:00,
2013-09-25 11:54:00,74.0,74.0,29.86,North,359,0.0,0.0,100,0.02,,,0.18,,2013-09-25 15:54:00,
2013-09-25 12:23:00,74.0,74.0,29.87,North,359,2.0,14.0,100,0.01,,,0.18,,2013-09-25 16:23:00,
2013-09-25 12:53:00,73.0,73.0,29.85,North,359,0.0,0.0,100,0.00,,,0.18,,2013-09-25 16:53:00,
2013-09-25 13:23:00,74.0,74.0,29.84,West,276,4.0,15.0,100,0.00,,,0.18,,2013-09-25 17:23:00,
2013-09-25 13:52:00,75.0,75.0,29.83,West,276,0.0,0.0,100,0.00,,,0.18,,2013-09-25 17:52:00,
2013-09-25 14:22:00,76.0,76.0,29.83,West,276,0.0,0.0,100,0.00,,,0.18,,2013-09-25 18:22:00,
2013-09-25 14:52:00,77.0,75.0,29.80,West,276,0.0,0.0,95,0.00,,,0.18,,2013-09-25 18:52:00,
2013-09-25 15:22:00,79.0,77.0,29.80,West,276,0.0,0.0,93,0.00,,,0.18,,2013-09-25 19:22:00,
2013-09-25 15:53:00,80.0,77.0,29.81,WSW,253,9.0,12.0,90,0.00,,,0.18,,2013-09-25 19:53:00,
2013-09-25 16:22:00,81.0,74.0,29.80,WSW,252,0.0,15.0,80,0.00,,,0.18,,2013-09-25 20:22:00,
2013-09-25 16:52:00,82.0,73.0,29.80,WSW,252,0.0,0.0,75,0.00,,,0.18,,2013-09-25 20:52:00,
2013-09-25 17:22:00,81.0,74.0,29.81,WSW,242,0.0,14.0,79,0.00,,,0.18,,2013-09-25 21:22:00,
2013-09-25 17:55:00,81.0,76.0,29.81,WSW,246,0.0,18.0,84,0.00,,,0.18,,2013-09-25 21:55:00,
2013-09-25 18:23:00,80.0,77.0,29.81,WSW,246,0.0,0.0,90,0.00,,,0.18,,2013-09-25 22:23:00,
2013-09-25 18:53:00,80.0,78.0,29.81,WSW,246,0.0,0.0,94,0.00,,,0.18,,2013-09-25 22:53:00,
2013-09-25 19:23:00,79.0,78.0,29.82,WSW,246,0.0,0.0,97,0.00,,,0.18,,2013-09-25 23:23:00,
2013-09-25 19:53:00,78.0,78.0,29.83,WSW,246,0.0,0.0,100,0.00,,,0.18,,2013-09-25 23:53:00,
2013-09-25 20:22:00,77.0,77.0,29.84,WSW,246,0.0,0.0,100,0.00,,,0.18,,2013-09-26 00:22:00,
2013-09-25 20:52:00,77.0,77.0,29.84,WSW,246,0.0,0.0,100,0.00,,,0.18,,2013-09-26 00:52:00,
2013-09-25 21:23:00,76.0,76.0,29.84,WSW,246,0.0,0.0,100,0.00,,,0.18,,2013-09-26 01:23:00,
2013-09-25 21:52:00,75.0,75.0,29.84,WSW,246,0.0,0.0,100,0.00,,,0.18,,2013-09-26 01:52:00,
2013-09-25 22:22:00,75.0,75.0,29.85,SW,232,3.0,5.0,100,0.00,,,0.18,,2013-09-26 02:22:00,
2013-09-25 23:22:00,75.0,75.0,29.84,SW,231,0.0,0.0,100,0.00,,,0.18,,2013-09-26 03:22:00,
2013-09-25 23:55:00,75.0,75.0,29.85,SW,231,0.0,0.0,100,0.00,,,0.18,,2013-09-26 03:55:00,